createdAt,value
2017-10-20T14:49:06.938Z,16.70
2017-10-20T14:51:33.979Z,16.70
2017-10-20T14:54:00.512Z,16.70
2017-10-20T14:56:27.615Z,16.70
2017-10-20T14:58:54.086Z,16.70
2017-10-20T15:01:20.577Z,16.60
2017-10-20T15:03:47.868Z,16.40
2017-10-20T15:06:14.339Z,16.40
2017-10-20T15:08:40.882Z,16.40
2017-10-20T15:11:07.442Z,16.30
2017-10-20T15:13:33.909Z,16.30
2017-10-20T15:16:00.456Z,16.20
2017-10-20T15:18:27.438Z,16.20
2017-10-20T15:20:53.870Z,16.10
2017-10-20T15:23:21.153Z,16.10
2017-10-20T15:25:48.430Z,16.10
2017-10-20T15:28:14.873Z,16.00
2017-10-20T15:30:41.354Z,16.00
2017-10-20T15:33:07.800Z,16.00
2017-10-20T15:35:34.239Z,16.00
2017-10-20T15:38:01.435Z,15.90
2017-10-20T15:40:27.983Z,15.90
2017-10-20T15:42:55.365Z,15.80
2017-10-20T15:45:21.799Z,15.80
2017-10-20T15:47:49.007Z,15.70
2017-10-20T15:50:16.406Z,15.70
2017-10-20T15:52:42.866Z,15.60
2017-10-20T15:55:09.381Z,15.50
2017-10-20T15:57:36.357Z,15.50
2017-10-20T16:00:02.813Z,15.40
2017-10-20T16:02:29.244Z,15.40
2017-10-20T16:04:56.535Z,15.30
2017-10-20T16:07:23.721Z,15.30
2017-10-20T16:09:50.264Z,15.30
2017-10-20T16:12:17.416Z,15.20
2017-10-20T16:14:43.844Z,15.20
2017-10-20T16:17:10.308Z,15.10
2017-10-20T16:19:36.733Z,15.10
2017-10-20T16:22:03.264Z,15.00
2017-10-20T16:24:29.701Z,15.00
2017-10-20T16:26:56.993Z,15.00
2017-10-20T16:29:24.180Z,15.00
2017-10-20T16:31:50.671Z,15.00
2017-10-20T16:34:17.864Z,15.10
2017-10-20T16:36:44.454Z,15.00
2017-10-20T16:39:11.655Z,15.10
2017-10-20T16:41:38.186Z,15.10
2017-10-20T16:44:05.459Z,15.10
2017-10-20T16:46:32.674Z,15.10
2017-10-20T16:48:59.205Z,15.10
2017-10-20T16:51:25.750Z,15.10
2017-10-20T16:53:52.760Z,15.00
2017-10-20T16:56:19.274Z,15.10
2017-10-20T16:58:45.700Z,15.10
2017-10-20T17:01:12.177Z,15.00
2017-10-20T17:03:39.460Z,15.00
2017-10-20T17:06:05.939Z,14.90
2017-10-20T17:08:32.476Z,14.90
2017-10-20T17:10:59.754Z,14.90
2017-10-20T17:13:26.212Z,14.80
2017-10-20T17:15:52.767Z,14.80
2017-10-20T17:18:19.197Z,14.80
2017-10-20T17:20:45.633Z,14.70
2017-10-20T17:23:12.809Z,14.70
2017-10-20T17:25:40.842Z,14.60
2017-10-20T17:28:07.499Z,14.60
2017-10-20T17:30:34.775Z,14.50
2017-10-20T17:33:01.333Z,14.50
2017-10-20T17:35:28.557Z,14.50
2017-10-20T17:37:55.763Z,14.50
2017-10-20T17:40:23.055Z,14.40
2017-10-20T17:42:49.498Z,14.40
2017-10-20T17:45:16.988Z,14.30
2017-10-20T17:47:44.471Z,14.20
2017-10-20T17:50:11.738Z,14.20
2017-10-20T17:52:39.017Z,14.10
2017-10-20T17:55:05.575Z,14.00
2017-10-20T17:57:32.850Z,14.00
2017-10-20T17:59:59.511Z,13.90
2017-10-20T18:02:26.029Z,13.90
2017-10-20T18:04:52.730Z,13.90
2017-10-20T18:07:19.272Z,13.80
2017-10-20T18:09:46.464Z,13.70
2017-10-20T18:12:13.226Z,13.70
2017-10-20T18:14:39.656Z,13.70
2017-10-20T18:17:06.237Z,13.70
2017-10-20T18:19:33.393Z,13.80
2017-10-20T18:22:01.401Z,13.80
2017-10-20T18:24:28.266Z,13.80
2017-10-20T18:26:54.783Z,13.90
2017-10-20T18:29:22.609Z,13.90
2017-10-20T18:31:49.379Z,13.90
2017-10-20T18:34:16.242Z,13.80
2017-10-20T18:36:42.901Z,13.80
2017-10-20T18:39:09.560Z,13.80
2017-10-20T18:41:36.323Z,13.70
2017-10-20T18:44:02.814Z,13.60
2017-10-20T18:46:29.341Z,13.60
2017-10-20T18:48:56.000Z,13.50
2017-10-20T18:51:23.273Z,13.50
2017-10-20T18:53:50.039Z,13.40
2017-10-20T18:56:18.042Z,13.40
2017-10-20T18:58:46.152Z,13.40
2017-10-20T19:01:12.677Z,13.30
2017-10-20T19:03:40.977Z,13.30
2017-10-20T19:06:08.864Z,13.30
2017-10-20T19:08:36.034Z,13.20
2017-10-20T19:11:03.821Z,13.20
2017-10-20T19:13:30.480Z,13.10
2017-10-20T19:15:57.344Z,13.10
2017-10-20T19:18:24.724Z,13.00
2017-10-20T19:20:51.252Z,13.00
2017-10-20T19:23:17.840Z,13.00
2017-10-20T19:25:45.076Z,13.10
2017-10-20T19:28:12.394Z,13.10
2017-10-20T19:30:39.155Z,13.20
2017-10-20T19:33:05.916Z,13.30
2017-10-20T19:35:32.988Z,13.40
2017-10-20T19:38:00.259Z,13.50
2017-10-20T19:40:27.138Z,13.60
2017-10-20T19:42:53.887Z,13.70
2017-10-20T19:45:21.368Z,13.80
2017-10-20T19:47:47.933Z,13.80
2017-10-20T19:50:14.483Z,13.80
2017-10-20T19:52:41.670Z,13.80
2017-10-20T19:55:08.218Z,13.80
2017-10-20T20:00:09.106Z,13.80
2017-10-20T20:02:35.662Z,13.90
2017-10-20T20:05:02.221Z,13.90
2017-10-20T20:07:29.437Z,13.90
2017-10-20T20:09:56.270Z,13.90
2017-10-20T20:12:22.909Z,13.90
2017-10-20T20:14:49.580Z,13.90
2017-10-20T20:17:16.650Z,13.90
2017-10-20T20:19:43.193Z,13.90
2017-10-20T20:22:10.384Z,13.90
2017-10-20T20:24:36.961Z,13.90
2017-10-20T20:27:03.704Z,13.90
2017-10-20T20:29:30.363Z,13.90
2017-10-20T20:31:57.957Z,13.90
2017-10-20T20:34:24.515Z,13.80
2017-10-20T20:36:51.233Z,13.80
2017-10-20T20:39:17.993Z,13.70
2017-10-20T20:41:45.239Z,13.40
2017-10-20T20:44:11.860Z,13.40
2017-10-20T20:46:38.575Z,13.30
2017-10-20T20:49:06.528Z,13.20
2017-10-20T20:51:33.026Z,13.20
2017-10-20T20:53:59.631Z,13.30
2017-10-20T20:56:26.392Z,13.30
2017-10-20T20:58:52.951Z,13.30
2017-10-20T21:01:19.510Z,13.40
2017-10-20T21:03:45.957Z,13.40
2017-10-20T21:06:13.248Z,13.40
2017-10-20T21:08:39.752Z,13.40
2017-10-20T21:11:06.355Z,13.40
2017-10-20T21:13:33.541Z,13.20
2017-10-20T21:16:00.292Z,13.20
2017-10-20T21:18:26.852Z,13.20
2017-10-20T21:20:53.804Z,13.10
2017-10-20T21:23:21.093Z,13.00
2017-10-20T21:25:48.429Z,12.90
2017-10-20T21:28:14.892Z,12.80
2017-10-20T21:30:41.382Z,12.80
2017-10-20T21:33:07.940Z,12.70
2017-10-20T21:35:34.505Z,12.60
2017-10-20T21:38:01.057Z,12.50
2017-10-20T21:40:28.280Z,12.40
2017-10-20T21:42:54.786Z,12.40
2017-10-20T21:45:22.030Z,12.20
2017-10-20T21:47:48.519Z,12.20
2017-10-20T21:50:14.992Z,12.20
2017-10-20T21:52:41.534Z,12.10
2017-10-20T21:55:08.914Z,11.90
2017-10-20T21:57:35.465Z,11.80
2017-10-20T22:00:02.764Z,11.70
2017-10-20T22:02:29.301Z,11.70
2017-10-20T22:04:55.817Z,11.70
2017-10-20T22:07:22.315Z,11.60
2017-10-20T22:09:49.595Z,11.50
2017-10-20T22:12:16.074Z,11.50
2017-10-20T22:14:42.587Z,11.50
2017-10-20T22:17:11.005Z,11.40
2017-10-20T22:19:38.199Z,11.30
2017-10-20T22:22:04.736Z,11.30
2017-10-20T22:24:32.116Z,11.20
2017-10-20T22:26:58.668Z,11.20
2017-10-20T22:29:25.944Z,11.10
2017-10-20T22:31:53.159Z,11.00
2017-10-20T22:34:19.674Z,11.00
2017-10-20T22:36:46.948Z,10.90
2017-10-20T22:39:14.174Z,10.90
2017-10-20T22:41:40.633Z,10.90
2017-10-20T22:44:07.120Z,10.80
2017-10-20T22:46:35.076Z,10.80
2017-10-20T22:49:02.299Z,10.70
2017-10-20T22:51:28.750Z,10.70
2017-10-20T22:53:55.963Z,10.60
2017-10-20T22:56:22.389Z,10.60
2017-10-20T22:58:48.941Z,10.60
2017-10-20T23:01:16.620Z,10.50
2017-10-20T23:03:43.815Z,10.40
2017-10-20T23:06:10.280Z,10.40
2017-10-20T23:08:36.914Z,10.40
2017-10-20T23:11:04.189Z,10.30
2017-10-20T23:13:30.745Z,10.30
2017-10-20T23:15:58.021Z,10.20
2017-10-20T23:18:24.682Z,10.20
2017-10-20T23:20:51.956Z,10.00
2017-10-20T23:23:19.175Z,9.90
2017-10-20T23:25:45.689Z,9.90
2017-10-20T23:28:12.448Z,9.80
2017-10-20T23:30:39.726Z,9.70
2017-10-20T23:33:06.282Z,9.70
2017-10-20T23:35:33.557Z,9.50
2017-10-20T23:38:00.040Z,9.50
2017-10-20T23:40:26.488Z,9.50
2017-10-20T23:42:53.027Z,9.40
2017-10-20T23:45:20.195Z,9.30
2017-10-20T23:47:48.156Z,9.20
2017-10-20T23:50:14.645Z,9.20
2017-10-20T23:52:41.811Z,9.10
2017-10-20T23:55:08.256Z,9.00
2017-10-20T23:57:35.669Z,9.00
